LESOGEML

Guest
Details From LESO - San_Sebastian
To GEML - MELILLA
Flight Number -
Tags decoded
Created
Modified
Stats Distance 522 nm / 966 km
Max Altitude 0 ft / 0 m
Waypoints 7
Social Downloads 9
Likes 0
Share

Download

Looking for another format? Having issues loading an existing format? Contact us
Advertisement - Login to hide

Notes

Requested: LESO GARVU HERMI CJN AMR PEKOP GEML

Route

LESO GARVU HERMI CJN AMR PEKOP GEML

ID Type Via Altitude (ft/m) Position (lat/lon) Dist (leg/tot) Name
O LESO APT - 0 / 0 43.35652 / -1.79061 - / 0 nm San_Sebastian
GARVU FIX - 0 / 0 42.17104 / -2.07781 72 / 72 nm
HERMI FIX - 0 / 0 41.47354 / -2.53329 46 / 118 nm
CJN VOR - 0 / 0 40.37196 / -2.54461 66 / 185 nm CASTEJON VOR-DME
AMR VOR - 0 / 0 36.83317 / -2.25942 212 / 398 nm ALMERIA VOR-DME
PEKOP FIX - 0 / 0 35.83333 / -3.44083 82 / 480 nm
O GEML APT - 0 / 0 35.28037 / -2.95671 40 / 521 nm MELILLA

Altitude Profile

Advertisement - Login to hide

Weather


0- 5 10 15 20 25 30 35+ Temperature / °C

Clouds and Precipitation
Forecast for 2021-03-22 12:00 UTC. Updated 2 months ago

Ground ~20,000 ft ~40,000 ft Winds

LESO

Details ICAO LESO (EAS)
Name San Sebastián
Region Spain
Timezone Europe/Madrid (UTC+2.0)
Stats Elevation 15 ft / 5 m (AMSL)
Location 43.356500° -1.790620°
Runways 1
Magnetic Variation 0.123° E

METAR

LESO 081330Z 21009KT 160V290 CAVOK 32/12 Q1008

Decode

TAF

TAF LESO 081100Z 0812/0912 17009KT CAVOK TX34/0815Z TN17/0900Z TEMPO 0820/0912 17016G28KT TEMPO 0900/0912 17022G37KT PROB30 TEMPO 0908/0912 3000 RA

Decode

Departure Runways

ID Width Length Bearing (true/mag) Surface Threshold Overrun Markings Lighting
04 148 ft / 45 m 5,712 ft / 1,741 m 38.67° / 38.54° ASPHALT 505 ft / 154 m 0 ft / 0 m PREC-APP CENTERLINE EDGE THRESHOLD REIL-OMNI
22 148 ft / 45 m 5,712 ft / 1,741 m 218.68° / 218.55° ASPHALT 505 ft / 154 m 0 ft / 0 m PREC-APP CENTERLINE EDGE THRESHOLD REIL-OMNI

GEML

Details ICAO GEML (MLN)
Name Melilla
Region Ceuta and Melilla
Timezone Africa/Casablanca (UTC+0.0)
Stats Elevation 156 ft / 48 m (AMSL)
Location 35.280500° -2.956780°
Runways 1
Magnetic Variation 0.087° W

METAR

GEML 081330Z 04005KT 290V080 CAVOK 22/17 Q1013

Decode

TAF

TAF TAF GEML 081100Z 0812/0912 06006KT 9999 SCT045 TX24/0912Z TN17/0906Z PROB30 TEMPO 0816/0822 SHRA SCT045TCU TEMPO 0818/0902 27010KT TEMPO 0903/0907 15010KT BECMG 0907/0910 28012KT PROB40 TEMPO 0910/0912 28015G25KT

Decode

Destination Runways

ID Width Length Bearing (true/mag) Surface Threshold Overrun Markings Lighting
15 149 ft / 45 m 4,886 ft / 1,489 m 146.47° / 146.55° ASPHALT 958 ft / 292 m 0 ft / 0 m PREC-APP EDGE THRESHOLD RAIL REIL-OMNI
33 149 ft / 45 m 4,886 ft / 1,489 m 326.47° / 326.56° ASPHALT 0 ft / 0 m 315 ft / 96 m PREC-APP EDGE THRESHOLD REIL-OMNI

Popular Alternatives